Time;durP1;ratioP1;P1;durP2;ratioP2;P2;SDS_P1;SDS_P2;PMS_P1;PMS_P2;Temp;Humidity;BMP_temperature;BMP_pressure;BME280_temperature;BME280_humidity;BME280_pressure;Samples;Min_cycle;Max_cycle;Signal;HPM_P1;HPM_P2
2022/01/14 00:02:08;;;;;;;;;;;;;;;0.92;100.00;99374.80;1702834;83;26048;-83
2022/01/14 00:04:35;;;;;;;;;;;;;;;0.92;100.00;99373.94;1697028;82;24613;-83
2022/01/14 00:07:01;;;;;;;;;;;;;;;0.92;100.00;99379.09;1692677;82;20450;-83
2022/01/14 00:09:28;;;;;;;;;;;;;;;0.92;100.00;99368.78;1699500;83;24800;-83
2022/01/14 00:11:57;;;;;;;;;;;;;;;0.93;100.00;99373.89;1692971;82;21903;-83
2022/01/14 00:14:36;;;;;;;;;;;;;;;0.93;100.00;99372.60;1688648;84;26082;-83
2022/01/14 00:16:52;;;;;;;;;;;;;;;0.97;100.00;99378.58;1695394;82;24543;-82
2022/01/14 00:19:20;;;;;;;;;;;;;;;0.99;100.00;99383.25;1698604;82;20251;-82
2022/01/14 00:21:46;;;;;;;;;;;;;;;1.02;100.00;99387.09;1708320;82;24763;-82
2022/01/14 00:32:21;;;;;;;;;;;;;;;1.12;100.00;99389.48;1702522;82;20339;-82
2022/01/14 00:34:44;;;;;;;;;;;;;;;1.11;100.00;99392.93;1705848;83;24444;-82
2022/01/14 00:37:11;;;;;;;;;;;;;;;1.10;100.00;99398.95;1703409;82;21941;-82
2022/01/14 00:39:37;;;;;;;;;;;;;;;1.09;100.00;99393.38;1701889;81;26008;-82
2022/01/14 00:42:04;;;;;;;;;;;;;;;1.12;100.00;99393.35;1701429;83;24395;-82
2022/01/14 00:44:30;;;;;;;;;;;;;;;1.13;100.00;99397.64;1700774;81;20459;-82
2022/01/14 00:46:56;;;;;;;;;;;;;;;1.13;100.00;99391.19;1705779;81;24739;-82
2022/01/14 00:49:22;;;;;;;;;;;;;;;1.15;100.00;99393.72;1700763;81;22043;-82
2022/01/14 00:51:48;;;;;;;;;;;;;;;1.14;100.00;99387.74;1703289;82;26102;-83
2022/01/14 00:54:17;;;;;;;;;;;;;;;1.14;100.00;99386.89;1709092;82;25033;-82
2022/01/14 00:59:16;;;;;;;;;;;;;;;1.11;100.00;99382.63;1697461;82;25405;-83
2022/01/14 01:01:50;;;;;;;;;;;;;;;1.10;100.00;99386.50;1703893;82;22092;-83
2022/01/14 01:04:17;;;;;;;;;;;;;;;1.07;100.00;99382.27;1697703;83;26141;-82
2022/01/14 01:06:44;;;;;;;;;;;;;;;1.11;100.00;99391.64;1702913;83;24495;-83
2022/01/14 01:09:12;;;;;;;;;;;;;;;1.10;100.00;99396.81;1705624;82;20268;-82
2022/01/14 01:11:46;;;;;;;;;;;;;;;1.12;100.00;99397.66;1705778;82;25321;-82
2022/01/14 01:14:16;;;;;;;;;;;;;;;1.15;100.00;99407.47;1705765;83;22085;-82
2022/01/14 01:16:40;;;;;;;;;;;;;;;1.18;100.00;99410.01;1696834;83;26109;-82
2022/01/14 01:19:06;;;;;;;;;;;;;;;1.23;100.00;99413.80;1691880;82;24429;-82
2022/01/14 01:21:32;;;;;;;;;;;;;;;1.27;100.00;99414.14;1696155;82;20392;-81
2022/01/14 01:23:58;;;;;;;;;;;;;;;1.30;100.00;99411.97;1702289;83;24823;-81
2022/01/14 01:26:37;;;;;;;;;;;;;;;1.27;100.00;99401.25;1680084;81;22038;-81
2022/01/14 01:29:02;;;;;;;;;;;;;;;1.28;100.00;99389.22;1690863;82;25447;-81
2022/01/14 01:31:36;;;;;;;;;;;;;;;1.26;100.00;99387.51;1693595;83;24489;-82
2022/01/14 01:34:03;;;;;;;;;;;;;;;1.22;100.00;99386.30;1669522;85;20181;-83
2022/01/14 01:36:29;;;;;;;;;;;;;;;1.21;100.00;99387.17;1681857;84;24811;-82
2022/01/14 01:38:55;;;;;;;;;;;;;;;1.19;100.00;99375.63;1673505;83;22043;-83
2022/01/14 01:41:21;;;;;;;;;;;;;;;1.17;100.00;99372.21;1697134;83;25936;-82
2022/01/14 01:43:51;;;;;;;;;;;;;;;1.13;100.00;99378.30;1698563;82;24584;-82
2022/01/14 01:46:17;;;;;;;;;;;;;;;1.15;100.00;99381.69;1691092;82;20635;-82
2022/01/14 01:48:43;;;;;;;;;;;;;;;1.16;100.00;99384.69;1703773;82;24967;-83
2022/01/14 01:51:09;;;;;;;;;;;;;;;1.20;100.00;99370.86;1682132;83;21888;-82
2022/01/14 01:53:35;;;;;;;;;;;;;;;1.25;100.00;99372.09;1692327;83;26165;-83
2022/01/14 01:56:01;;;;;;;;;;;;;;;1.26;100.00;99373.77;1699039;82;24657;-83
2022/01/14 01:58:27;;;;;;;;;;;;;;;1.24;100.00;99371.67;1697722;83;20222;-83
2022/01/14 02:00:53;;;;;;;;;;;;;;;1.23;100.00;99381.13;1687552;82;20410;-83
2022/01/14 02:03:19;;;;;;;;;;;;;;;1.23;100.00;99376.41;1688579;84;21984;-83
2022/01/14 02:05:46;;;;;;;;;;;;;;;1.22;100.00;99378.13;1684912;84;25977;-83
2022/01/14 02:08:12;;;;;;;;;;;;;;;1.23;100.00;99383.71;1689310;84;24520;-83
2022/01/14 02:10:39;;;;;;;;;;;;;;;1.29;100.00;99385.33;1685436;83;20467;-83
2022/01/14 02:13:06;;;;;;;;;;;;;;;1.31;100.00;99389.18;1688116;83;24821;-83
2022/01/14 02:16:12;;;;;;;;;;;;;;;1.30;100.00;99399.08;1681322;84;22069;-83
2022/01/14 02:18:30;;;;;;;;;;;;;;;1.27;100.00;99390.94;1672392;84;26138;-83
2022/01/14 02:23:45;;;;;;;;;;;;;;;1.30;100.00;99393.48;1657519;85;20293;-83
2022/01/14 02:26:13;;;;;;;;;;;;;;;1.30;100.00;99393.92;1658121;85;25501;-83
2022/01/14 02:28:36;;;;;;;;;;;;;;;1.31;100.00;99389.18;1658191;85;22029;-83
2022/01/14 02:31:02;;;;;;;;;;;;;;;1.33;100.00;99383.54;1654971;85;25980;-83
2022/01/14 02:33:29;;;;;;;;;;;;;;;1.36;100.00;99380.92;1658227;85;24491;-83
2022/01/14 02:35:55;;;;;;;;;;;;;;;1.35;100.00;99372.34;1656195;85;20267;-83
2022/01/14 02:38:21;;;;;;;;;;;;;;;1.34;100.00;99365.47;1655055;85;24846;-83
2022/01/14 02:40:48;;;;;;;;;;;;;;;1.34;100.00;99359.46;1650318;86;22030;-84
2022/01/14 02:43:16;;;;;;;;;;;;;;;1.34;100.00;99358.17;1649044;85;26051;-83
2022/01/14 02:45:46;;;;;;;;;;;;;;;1.34;100.00;99355.16;1646920;85;24556;-83
2022/01/14 02:48:11;;;;;;;;;;;;;;;1.32;100.00;99362.49;1662455;85;20282;-83
2022/01/14 02:50:39;;;;;;;;;;;;;;;1.34;100.00;99363.33;1662723;85;24745;-83
2022/01/14 02:55:52;;;;;;;;;;;;;;;1.30;100.00;99363.84;1651723;86;26855;-83
2022/01/14 02:58:19;;;;;;;;;;;;;;;1.28;100.00;99364.72;1662879;85;24456;-83
2022/01/14 03:00:52;;;;;;;;;;;;;;;1.29;100.00;99366.43;1660533;85;20200;-83
2022/01/14 03:03:25;;;;;;;;;;;;;;;1.34;100.00;99364.62;1659803;85;24833;-83
2022/01/14 03:05:52;;;;;;;;;;;;;;;1.38;100.00;99363.67;1664710;85;21974;-83
2022/01/14 03:08:19;;;;;;;;;;;;;;;1.44;100.00;99357.97;1668567;84;26005;-83
2022/01/14 03:10:46;;;;;;;;;;;;;;;1.46;100.00;99358.81;1671641;84;24421;-83
2022/01/14 03:13:13;;;;;;;;;;;;;;;1.46;100.00;99347.64;1661809;85;20231;-83
2022/01/14 03:15:39;;;;;;;;;;;;;;;1.45;100.00;99352.38;1656643;85;24839;-83
2022/01/14 03:18:05;;;;;;;;;;;;;;;1.44;100.00;99355.83;1665441;83;22048;-84
2022/01/14 03:20:48;;;;;;;;;;;;;;;1.39;100.00;99349.91;1696341;84;21090;-83
2022/01/14 03:23:11;;;;;;;;;;;;;;;1.32;100.00;99345.73;1699750;82;24474;-83
2022/01/14 03:25:59;;;;;;;;;;;;;;;1.26;100.00;99347.98;1689557;84;20222;-82
2022/01/14 03:28:05;;;;;;;;;;;;;;;1.24;100.00;99352.34;1627091;86;24705;-84
2022/01/14 03:30:32;;;;;;;;;;;;;;;1.25;100.00;99349.70;1686625;83;22186;-84
2022/01/14 03:32:58;;;;;;;;;;;;;;;1.26;100.00;99339.81;1679321;83;25975;-83
2022/01/14 03:35:24;;;;;;;;;;;;;;;1.34;100.00;99346.56;1695663;83;24541;-84
2022/01/14 03:37:50;;;;;;;;;;;;;;;1.36;100.00;99337.09;1684214;83;20194;-84
2022/01/14 03:40:16;;;;;;;;;;;;;;;1.42;100.00;99342.14;1681542;84;24730;-84
2022/01/14 03:42:42;;;;;;;;;;;;;;;1.44;100.00;99336.48;1692085;83;22185;-82
2022/01/14 03:45:09;;;;;;;;;;;;;;;1.47;100.00;99332.58;1682072;84;26006;-82
2022/01/14 03:47:35;;;;;;;;;;;;;;;1.51;100.00;99330.34;1687545;84;24479;-82
2022/01/14 03:50:01;;;;;;;;;;;;;;;1.48;100.00;99322.65;1689650;83;20158;-82
2022/01/14 03:52:27;;;;;;;;;;;;;;;1.45;100.00;99319.70;1682639;84;24730;-82
2022/01/14 03:54:53;;;;;;;;;;;;;;;1.42;100.00;99325.38;1683466;83;21990;-82
2022/01/14 03:57:20;;;;;;;;;;;;;;;1.40;100.00;99324.54;1681698;84;26043;-82
2022/01/14 03:59:45;;;;;;;;;;;;;;;1.39;100.00;99327.55;1682499;82;25242;-82
2022/01/14 04:02:12;;;;;;;;;;;;;;;1.36;100.00;99328.06;1686580;83;20409;-82
2022/01/14 04:04:38;;;;;;;;;;;;;;;1.36;100.00;99323.76;1688714;82;24820;-82
2022/01/14 04:07:04;;;;;;;;;;;;;;;1.37;100.00;99328.45;1685262;84;21992;-83
2022/01/14 04:09:36;;;;;;;;;;;;;;;1.37;100.00;99328.45;1680010;84;26596;-83
2022/01/14 04:12:01;;;;;;;;;;;;;;;1.37;100.00;99325.88;1689895;84;24723;-83
2022/01/14 04:16:59;;;;;;;;;;;;;;;1.38;100.00;99331.00;1691954;83;24844;-83
2022/01/14 04:19:28;;;;;;;;;;;;;;;1.41;100.00;99337.41;1690213;83;21467;-83
2022/01/14 04:21:55;;;;;;;;;;;;;;;1.44;100.00;99338.63;1691054;83;26070;-83
2022/01/14 04:24:21;;;;;;;;;;;;;;;1.43;100.00;99324.03;1688926;83;25330;-83
2022/01/14 04:26:47;;;;;;;;;;;;;;;1.44;100.00;99315.86;1692982;84;20252;-83
2022/01/14 04:29:13;;;;;;;;;;;;;;;1.45;100.00;99316.27;1693305;82;24758;-84
2022/01/14 04:31:39;;;;;;;;;;;;;;;1.47;100.00;99305.50;1683555;83;21963;-84
2022/01/14 04:34:05;;;;;;;;;;;;;;;1.49;100.00;99309.73;1686701;82;26010;-83
2022/01/14 04:36:31;;;;;;;;;;;;;;;1.52;100.00;99307.55;1693149;83;24512;-84
2022/01/14 04:38:58;;;;;;;;;;;;;;;1.53;100.00;99296.33;1695739;84;20299;-83
2022/01/14 04:41:24;;;;;;;;;;;;;;;1.56;100.00;99293.70;1682912;84;25087;-83
2022/01/14 04:43:50;;;;;;;;;;;;;;;1.54;100.00;99293.73;1695692;83;22087;-84
2022/01/14 04:49:01;;;;;;;;;;;;;;;1.54;100.00;99291.58;1700663;83;24620;-82
2022/01/14 04:51:27;;;;;;;;;;;;;;;1.52;100.00;99294.66;1681818;81;20234;-82
2022/01/14 04:53:53;;;;;;;;;;;;;;;1.53;100.00;99293.75;1691517;82;24800;-82
2022/01/14 04:56:19;;;;;;;;;;;;;;;1.55;100.00;99281.68;1693698;82;20883;-82
2022/01/14 04:58:45;;;;;;;;;;;;;;;1.57;100.00;99270.47;1696864;83;26016;-82
2022/01/14 05:01:11;;;;;;;;;;;;;;;1.62;100.00;99267.78;1695109;83;24492;-82
2022/01/14 05:03:37;;;;;;;;;;;;;;;1.67;100.00;99262.09;1692624;82;20336;-82
2022/01/14 05:06:05;;;;;;;;;;;;;;;1.70;100.00;99263.30;1693790;82;24882;-82
2022/01/14 05:08:37;;;;;;;;;;;;;;;1.74;100.00;99268.83;1695420;82;22052;-82
2022/01/14 05:13:27;;;;;;;;;;;;;;;1.78;100.00;99259.28;1677415;84;24576;-82
2022/01/14 05:15:53;;;;;;;;;;;;;;;1.78;100.00;99254.13;1687262;83;20811;-82
2022/01/14 05:18:19;;;;;;;;;;;;;;;1.79;100.00;99249.38;1700366;82;24766;-83
2022/01/14 05:20:45;;;;;;;;;;;;;;;1.80;100.00;99245.45;1703599;83;22128;-82
2022/01/14 05:23:11;;;;;;;;;;;;;;;1.84;100.00;99259.16;1698601;82;26048;-82
2022/01/14 05:25:37;;;;;;;;;;;;;;;1.84;100.00;99248.83;1697151;84;20322;-82
2022/01/14 05:28:04;;;;;;;;;;;;;;;1.84;100.00;99249.69;1690754;83;20254;-82
2022/01/14 05:30:35;;;;;;;;;;;;;;;1.83;100.00;99250.56;1681036;83;24626;-82
2022/01/14 05:33:02;;;;;;;;;;;;;;;1.82;100.00;99243.70;1693478;82;21961;-82
2022/01/14 05:35:28;;;;;;;;;;;;;;;1.82;100.00;99241.55;1694241;82;26173;-82
2022/01/14 05:37:54;;;;;;;;;;;;;;;1.81;100.00;99244.57;1691019;81;24498;-84
2022/01/14 05:40:23;;;;;;;;;;;;;;;1.79;100.00;99237.77;1689738;82;20400;-83
2022/01/14 05:42:49;;;;;;;;;;;;;;;1.79;100.00;99250.66;1693652;82;24826;-82
2022/01/14 05:45:16;;;;;;;;;;;;;;;1.78;100.00;99247.23;1690743;83;20344;-83
2022/01/14 05:47:42;;;;;;;;;;;;;;;1.80;100.00;99242.87;1693298;83;26613;-83
2022/01/14 05:50:11;;;;;;;;;;;;;;;1.82;100.00;99248.00;1698783;82;24428;-82
2022/01/14 05:52:37;;;;;;;;;;;;;;;1.80;100.00;99244.16;1687282;83;20261;-82
2022/01/14 05:55:06;;;;;;;;;;;;;;;1.77;100.00;99239.08;1692130;83;25377;-82
2022/01/14 05:57:34;;;;;;;;;;;;;;;1.77;100.00;99241.66;1698411;81;22013;-83
2022/01/14 06:00:02;;;;;;;;;;;;;;;1.78;100.00;99249.81;1693056;82;26653;-83
2022/01/14 06:02:28;;;;;;;;;;;;;;;1.78;100.00;99250.25;1692398;83;24460;-83
2022/01/14 06:04:54;;;;;;;;;;;;;;;1.77;100.00;99239.08;1690139;83;20236;-83
2022/01/14 06:07:21;;;;;;;;;;;;;;;1.80;100.00;99239.00;1683663;81;25440;-82
2022/01/14 06:09:50;;;;;;;;;;;;;;;1.82;100.00;99231.23;1696244;83;22931;-83
2022/01/14 06:12:16;;;;;;;;;;;;;;;1.85;100.00;99232.03;1691339;82;25987;-83
2022/01/14 06:14:42;;;;;;;;;;;;;;;1.86;100.00;99219.95;1692937;82;24484;-83
2022/01/14 06:17:08;;;;;;;;;;;;;;;1.85;100.00;99215.70;1700917;84;20206;-83
2022/01/14 06:19:37;;;;;;;;;;;;;;;1.87;100.00;99217.34;1699369;82;25456;-83
2022/01/14 06:22:04;;;;;;;;;;;;;;;1.86;100.00;99223.38;1691232;81;22036;-82
2022/01/14 06:24:31;;;;;;;;;;;;;;;1.87;100.00;99216.05;1688264;82;26756;-83
2022/01/14 06:26:57;;;;;;;;;;;;;;;1.89;100.00;99213.01;1698556;83;24446;-83
2022/01/14 06:29:23;;;;;;;;;;;;;;;1.92;100.00;99202.60;1693329;83;20206;-83
2022/01/14 06:31:49;;;;;;;;;;;;;;;1.96;100.00;99203.41;1691670;82;24820;-83
2022/01/14 06:34:15;;;;;;;;;;;;;;;1.97;100.00;99190.44;1685618;81;21965;-83
2022/01/14 06:36:43;;;;;;;;;;;;;;;1.98;100.00;99193.87;1693864;82;26196;-83
2022/01/14 06:39:09;;;;;;;;;;;;;;;2.02;100.00;99201.50;1692308;82;24492;-83
2022/01/14 06:41:35;;;;;;;;;;;;;;;2.03;100.00;99198.48;1693518;83;20522;-83
2022/01/14 06:44:01;;;;;;;;;;;;;;;2.04;100.00;99203.62;1687804;84;24851;-83
2022/01/14 06:46:27;;;;;;;;;;;;;;;2.06;100.00;99212.19;1680939;83;21859;-83
2022/01/14 06:48:53;;;;;;;;;;;;;;;2.07;100.00;99212.56;1680145;84;21127;-83
2022/01/14 06:51:19;;;;;;;;;;;;;;;2.08;100.00;99210.40;1678391;84;24505;-83
2022/01/14 06:53:46;;;;;;;;;;;;;;;2.10;100.00;99213.80;1675418;83;20289;-83
2022/01/14 06:56:14;;;;;;;;;;;;;;;2.12;100.00;99216.80;1671660;83;24739;-83
2022/01/14 06:58:40;;;;;;;;;;;;;;;2.13;100.00;99210.75;1684893;83;21989;-83
2022/01/14 07:01:06;;;;;;;;;;;;;;;2.13;100.00;99214.63;1679704;83;26046;-83
2022/01/14 07:03:33;;;;;;;;;;;;;;;2.16;100.00;99218.41;1679272;83;24587;-83
2022/01/14 07:06:00;;;;;;;;;;;;;;;2.16;100.00;99213.25;1681877;83;20455;-83
2022/01/14 07:08:26;;;;;;;;;;;;;;;2.16;100.00;99209.37;1679859;83;24822;-83
2022/01/14 07:10:52;;;;;;;;;;;;;;;2.14;100.00;99227.48;1677800;83;22008;-83
2022/01/14 07:13:18;;;;;;;;;;;;;;;2.16;100.00;99226.16;1681459;84;21195;-83
2022/01/14 07:15:44;;;;;;;;;;;;;;;2.17;100.00;99237.75;1676116;84;24440;-83
2022/01/14 07:18:10;;;;;;;;;;;;;;;2.22;100.00;99242.36;1672909;83;20240;-83
2022/01/14 07:20:37;;;;;;;;;;;;;;;2.25;100.00;99240.98;1678927;83;24722;-83
2022/01/14 07:23:04;;;;;;;;;;;;;;;2.29;100.00;99241.31;1668294;84;22801;-83
2022/01/14 07:25:30;;;;;;;;;;;;;;;2.33;100.00;99237.80;1668374;83;26003;-83
2022/01/14 07:27:57;;;;;;;;;;;;;;;2.39;100.00;99236.80;1677152;84;24571;-83
2022/01/14 07:30:24;;;;;;;;;;;;;;;2.48;100.00;99243.02;1675576;83;20298;-85
2022/01/14 07:32:53;;;;;;;;;;;;;;;2.52;100.00;99244.20;1671374;85;24258;-83
2022/01/14 07:35:28;;;;;;;;;;;;;;;2.56;100.00;99246.28;1671167;83;22132;-83
2022/01/14 07:37:57;;;;;;;;;;;;;;;2.62;100.00;99236.24;1678099;83;25987;-83
2022/01/14 07:40:23;;;;;;;;;;;;;;;2.64;100.00;99227.55;1670454;83;24514;-83
2022/01/14 07:42:49;;;;;;;;;;;;;;;2.69;100.00;99233.89;1666161;83;21053;-83
2022/01/14 07:45:15;;;;;;;;;;;;;;;2.65;100.00;99237.00;1677747;83;24723;-83
2022/01/14 07:47:45;;;;;;;;;;;;;;;2.65;100.00;99235.71;1665477;85;22248;-83
2022/01/14 07:50:09;;;;;;;;;;;;;;;2.65;100.00;99227.95;1672207;83;26718;-83
2022/01/14 07:52:35;;;;;;;;;;;;;;;2.64;100.00;99238.33;1663828;83;24234;-83
2022/01/14 07:55:01;;;;;;;;;;;;;;;2.60;100.00;99233.69;1675721;83;20178;-83
2022/01/14 07:57:28;;;;;;;;;;;;;;;2.59;100.00;99235.01;1675643;85;24646;-83
2022/01/14 07:59:57;;;;;;;;;;;;;;;2.66;100.00;99237.41;1661507;85;22750;-83
2022/01/14 08:02:25;;;;;;;;;;;;;;;2.78;100.00;99232.38;1679392;83;26050;-83
2022/01/14 08:04:51;;;;;;;;;;;;;;;2.88;100.00;99233.83;1671386;83;24794;-82
2022/01/14 08:07:22;;;;;;;;;;;;;;;2.97;100.00;99234.88;1676261;83;20258;-83
2022/01/14 08:09:45;;;;;;;;;;;;;;;3.05;100.00;99238.56;1671644;83;24243;-83
2022/01/14 08:12:13;;;;;;;;;;;;;;;3.10;100.00;99236.25;1677320;83;21939;-82
2022/01/14 08:14:40;;;;;;;;;;;;;;;3.09;100.00;99238.44;1667483;83;26011;-83
2022/01/14 08:17:06;;;;;;;;;;;;;;;3.10;100.00;99239.28;1674894;85;24495;-83
2022/01/14 08:19:33;;;;;;;;;;;;;;;3.15;100.00;99228.38;1676477;83;20467;-83
2022/01/14 08:22:03;;;;;;;;;;;;;;;3.26;100.00;99210.81;1679010;83;25029;-83
2022/01/14 08:24:33;;;;;;;;;;;;;;;3.38;100.00;99202.72;1678475;83;22054;-83
2022/01/14 08:27:05;;;;;;;;;;;;;;;3.47;100.00;99202.89;1675936;84;26123;-83
2022/01/14 08:29:33;;;;;;;;;;;;;;;3.51;100.00;99200.60;1675845;83;24427;-83
2022/01/14 08:31:59;;;;;;;;;;;;;;;3.51;100.00;99200.60;1681147;84;20224;-83
2022/01/14 08:34:27;;;;;;;;;;;;;;;3.48;100.00;99190.36;1679425;84;24825;-83
2022/01/14 08:36:53;;;;;;;;;;;;;;;3.50;100.00;99182.08;1681772;83;22255;-83
2022/01/14 08:39:19;;;;;;;;;;;;;;;3.45;100.00;99187.40;1680472;83;25972;-83
2022/01/14 08:41:46;;;;;;;;;;;;;;;3.38;100.00;99188.48;1687548;83;24437;-83
2022/01/14 08:44:17;;;;;;;;;;;;;;;3.33;100.00;99189.04;1674574;83;20228;-83
2022/01/14 08:46:41;;;;;;;;;;;;;;;3.31;100.00;99185.22;1676209;83;24804;-83
2022/01/14 08:49:08;;;;;;;;;;;;;;;3.25;100.00;99193.59;1679802;84;22060;-82
2022/01/14 08:51:38;;;;;;;;;;;;;;;3.24;100.00;99191.89;1675710;83;26944;-83
2022/01/14 08:54:04;;;;;;;;;;;;;;;3.24;100.00;99184.98;1674748;83;24664;-83
2022/01/14 08:56:32;;;;;;;;;;;;;;;3.26;100.00;99188.83;1686387;83;20236;-83
2022/01/14 08:58:58;;;;;;;;;;;;;;;3.22;100.00;99177.70;1679966;83;25972;-84
2022/01/14 09:01:24;;;;;;;;;;;;;;;3.14;100.00;99173.21;1678148;83;21978;-83
2022/01/14 09:03:51;;;;;;;;;;;;;;;3.10;100.00;99165.14;1685177;84;26007;-82
2022/01/14 09:06:17;;;;;;;;;;;;;;;3.06;100.00;99162.22;1677788;83;24539;-83
2022/01/14 09:08:44;;;;;;;;;;;;;;;3.04;100.00;99146.36;1683413;84;20447;-83
2022/01/14 09:11:10;;;;;;;;;;;;;;;3.02;100.00;99141.67;1681695;83;24806;-83
2022/01/14 09:13:36;;;;;;;;;;;;;;;2.98;100.00;99142.21;1671941;83;21954;-82
2022/01/14 09:16:02;;;;;;;;;;;;;;;2.98;100.00;99137.05;1678271;84;26063;-83
2022/01/14 09:18:29;;;;;;;;;;;;;;;2.98;100.00;99132.31;1679945;84;24392;-82
2022/01/14 09:20:58;;;;;;;;;;;;;;;2.97;100.00;99129.31;1679244;83;20327;-82
2022/01/14 09:23:25;;;;;;;;;;;;;;;2.95;100.00;99117.28;1672715;85;24390;-83
2022/01/14 09:25:52;;;;;;;;;;;;;;;2.95;100.00;99117.72;1674410;85;22169;-82
2022/01/14 09:28:18;;;;;;;;;;;;;;;2.94;100.00;99121.22;1672231;84;26052;-83
2022/01/14 09:30:44;;;;;;;;;;;;;;;2.91;100.00;99130.34;1666807;83;25529;-82
2022/01/14 09:33:10;;;;;;;;;;;;;;;2.88;100.00;99123.53;1674729;85;20233;-82
2022/01/14 09:35:37;;;;;;;;;;;;;;;2.86;100.00;99121.42;1681026;84;24719;-82
2022/01/14 09:38:04;;;;;;;;;;;;;;;2.86;100.00;99118.84;1676850;85;22463;-82
2022/01/14 09:40:30;;;;;;;;;;;;;;;2.86;100.00;99114.96;1672778;83;26188;-83
2022/01/14 09:43:01;;;;;;;;;;;;;;;2.85;100.00;99116.29;1668822;83;24548;-82
2022/01/14 09:45:28;;;;;;;;;;;;;;;2.86;100.00;99113.67;1673607;84;20283;-83
2022/01/14 09:47:54;;;;;;;;;;;;;;;2.89;100.00;99109.69;1673095;85;24746;-82
2022/01/14 09:50:21;;;;;;;;;;;;;;;2.89;100.00;99099.35;1678366;83;22082;-83
2022/01/14 09:52:51;;;;;;;;;;;;;;;2.89;100.00;99085.14;1665115;84;26071;-83
2022/01/14 09:55:23;;;;;;;;;;;;;;;2.89;100.00;99083.84;1665988;85;24468;-82
2022/01/14 09:57:52;;;;;;;;;;;;;;;2.95;100.00;99087.55;1667341;84;20244;-82
2022/01/14 10:00:21;;;;;;;;;;;;;;;3.04;100.00;99082.58;1670641;85;25496;-84
2022/01/14 10:02:49;;;;;;;;;;;;;;;3.07;100.00;99079.03;1676801;83;22064;-84
2022/01/14 10:05:33;;;;;;;;;;;;;;;3.10;100.00;99069.47;1670624;84;25977;-84
2022/01/14 10:08:16;;;;;;;;;;;;;;;3.11;100.00;99066.44;1675277;85;24719;-84
2022/01/14 10:10:54;;;;;;;;;;;;;;;3.13;100.00;99055.59;1657529;85;20213;-84
2022/01/14 10:13:21;;;;;;;;;;;;;;;3.16;100.00;99041.29;1676097;83;24977;-84
2022/01/14 10:15:52;;;;;;;;;;;;;;;3.15;100.00;99038.30;1673920;84;20187;-84
2022/01/14 10:18:24;;;;;;;;;;;;;;;3.14;100.00;99036.59;1671668;83;26041;-84
2022/01/14 10:20:52;;;;;;;;;;;;;;;3.15;100.00;99035.71;1675751;84;24708;-84
2022/01/14 10:23:39;;;;;;;;;;;;;;;3.19;100.00;99043.77;1678686;83;20196;-85
2022/01/14 10:26:07;;;;;;;;;;;;;;;3.22;100.00;99031.58;1653872;85;22196;-84
2022/01/14 10:28:33;;;;;;;;;;;;;;;3.27;100.00;99034.05;1672215;84;22320;-85
2022/01/14 10:31:03;;;;;;;;;;;;;;;3.29;100.00;99021.89;1681560;84;26626;-85
2022/01/14 10:33:30;;;;;;;;;;;;;;;3.33;100.00;99016.58;1675043;83;25091;-84
2022/01/14 10:35:56;;;;;;;;;;;;;;;3.41;100.00;99016.34;1671067;84;20938;-85
2022/01/14 10:38:23;;;;;;;;;;;;;;;3.46;100.00;99002.81;1674407;83;24760;-85
2022/01/14 10:40:53;;;;;;;;;;;;;;;3.50;100.00;99004.84;1673462;84;20491;-84
2022/01/14 10:43:23;;;;;;;;;;;;;;;3.57;100.00;99000.73;1678148;83;26611;-85
2022/01/14 10:45:55;;;;;;;;;;;;;;;3.64;100.00;98994.46;1675048;83;25155;-85
2022/01/14 10:48:31;;;;;;;;;;;;;;;3.74;100.00;98996.29;1670781;85;20227;-84
2022/01/14 10:51:10;;;;;;;;;;;;;;;3.82;100.00;98983.92;1670121;85;24937;-85
2022/01/14 10:53:35;;;;;;;;;;;;;;;3.89;100.00;98979.38;1671337;85;21989;-85
2022/01/14 10:56:05;;;;;;;;;;;;;;;3.98;100.00;98979.09;1669103;83;26003;-84
2022/01/14 10:58:33;;;;;;;;;;;;;;;4.07;100.00;98979.61;1669824;83;24526;-84
2022/01/14 11:01:00;;;;;;;;;;;;;;;4.16;100.00;98971.50;1676502;83;20212;-84
2022/01/14 11:03:37;;;;;;;;;;;;;;;4.26;100.00;98965.98;1664607;83;25724;-84
2022/01/14 11:06:17;;;;;;;;;;;;;;;4.33;100.00;98967.02;1674179;84;22108;-84
2022/01/14 11:08:44;;;;;;;;;;;;;;;4.38;100.00;98955.19;1673121;83;26098;-85
2022/01/14 11:11:11;;;;;;;;;;;;;;;4.44;100.00;98960.99;1669304;83;24636;-85
2022/01/14 11:13:40;;;;;;;;;;;;;;;4.45;100.00;98963.98;1675700;83;20497;-85
2022/01/14 11:16:06;;;;;;;;;;;;;;;4.49;100.00;98966.00;1665870;83;24985;-84
2022/01/14 11:18:32;;;;;;;;;;;;;;;4.52;100.00;98968.05;1667586;83;22013;-84
2022/01/14 11:23:43;;;;;;;;;;;;;;;4.59;100.00;98957.83;1677517;83;24463;-85
2022/01/14 11:26:11;;;;;;;;;;;;;;;4.64;100.00;98951.17;1681693;83;20216;-84
2022/01/14 11:28:40;;;;;;;;;;;;;;;4.68;100.00;98946.73;1672693;83;24978;-84
2022/01/14 11:31:26;;;;;;;;;;;;;;;4.73;100.00;98937.03;1677492;83;22860;-84
2022/01/14 11:33:52;;;;;;;;;;;;;;;4.76;100.00;98928.67;1673904;84;26308;-84
2022/01/14 11:36:18;;;;;;;;;;;;;;;4.82;100.00;98926.30;1678530;84;25240;-85
2022/01/14 11:38:45;;;;;;;;;;;;;;;4.87;100.00;98928.26;1679799;83;20212;-85
2022/01/14 11:41:13;;;;;;;;;;;;;;;4.92;100.00;98923.73;1683950;84;24874;-84
2022/01/14 11:43:46;;;;;;;;;;;;;;;4.98;100.00;98932.58;1678133;84;22009;-85
2022/01/14 11:46:16;;;;;;;;;;;;;;;5.02;100.00;98933.69;1679366;83;26540;-85
2022/01/14 11:48:47;;;;;;;;;;;;;;;5.11;100.00;98928.60;1675656;83;24453;-85
2022/01/14 11:51:16;;;;;;;;;;;;;;;5.16;100.00;98926.67;1678445;84;20234;-85
2022/01/14 11:53:51;;;;;;;;;;;;;;;5.21;100.00;98929.91;1667463;84;20289;-85
2022/01/14 11:56:32;;;;;;;;;;;;;;;5.25;100.00;98916.36;1677273;83;23244;-84
2022/01/14 11:59:16;;;;;;;;;;;;;;;5.28;100.00;98913.20;1679541;83;25949;-85
2022/01/14 12:01:43;;;;;;;;;;;;;;;5.30;100.00;98897.09;1681068;84;24524;-85
2022/01/14 12:04:09;;;;;;;;;;;;;;;5.32;100.00;98899.19;1675585;84;20247;-84
2022/01/14 12:06:55;;;;;;;;;;;;;;;5.36;100.00;98909.83;1684562;83;24879;-84
2022/01/14 12:09:22;;;;;;;;;;;;;;;5.42;100.00;98899.64;1677876;83;22142;-85
2022/01/14 12:12:07;;;;;;;;;;;;;;;5.50;100.00;98896.29;1675077;83;26097;-85
2022/01/14 12:14:43;;;;;;;;;;;;;;;5.57;100.00;98891.66;1679810;83;23864;-84
2022/01/14 12:17:12;;;;;;;;;;;;;;;5.62;100.00;98879.36;1677906;83;20180;-85
2022/01/14 12:19:31;;;;;;;;;;;;;;;5.67;100.00;98886.49;1677713;83;24934;-85
2022/01/14 12:21:58;;;;;;;;;;;;;;;5.70;100.00;98887.19;1676613;83;22137;-84
2022/01/14 12:24:28;;;;;;;;;;;;;;;5.72;100.00;98889.28;1677406;83;26614;-85
2022/01/14 12:27:11;;;;;;;;;;;;;;;5.75;100.00;98893.48;1677071;83;25109;-85
2022/01/14 12:29:38;;;;;;;;;;;;;;;5.79;100.00;98896.33;1678257;83;20316;-85
2022/01/14 12:32:06;;;;;;;;;;;;;;;5.81;100.00;98897.96;1678673;83;24778;-84
2022/01/14 12:34:36;;;;;;;;;;;;;;;5.82;100.00;98898.81;1674000;83;22211;-84
2022/01/14 12:37:03;;;;;;;;;;;;;;;5.76;100.00;98897.32;1675885;84;26007;-84
2022/01/14 12:39:29;;;;;;;;;;;;;;;5.73;100.00;98897.44;1678637;83;24525;-84
2022/01/14 12:41:57;;;;;;;;;;;;;;;5.77;100.00;98897.72;1676439;83;20509;-84
2022/01/14 12:44:23;;;;;;;;;;;;;;;5.82;100.00;98891.86;1679371;83;24837;-85
2022/01/14 12:47:01;;;;;;;;;;;;;;;5.81;100.00;98884.98;1679227;84;21905;-85
2022/01/14 12:49:32;;;;;;;;;;;;;;;5.85;100.00;98888.27;1680533;83;26056;-86
2022/01/14 12:52:05;;;;;;;;;;;;;;;5.85;100.00;98887.82;1676187;83;24028;-85
2022/01/14 12:54:32;;;;;;;;;;;;;;;5.85;100.00;98893.02;1681082;83;20222;-84
2022/01/14 12:56:58;;;;;;;;;;;;;;;5.86;100.00;98886.06;1675959;83;24744;-84
2022/01/14 12:59:25;;;;;;;;;;;;;;;5.85;100.00;98880.03;1683441;83;23197;-84
2022/01/14 13:01:52;;;;;;;;;;;;;;;5.90;100.00;98879.86;1679613;83;25890;-84
2022/01/14 13:04:20;;;;;;;;;;;;;;;5.92;100.00;98882.39;1683488;83;25059;-84
2022/01/14 13:06:51;;;;;;;;;;;;;;;5.91;100.00;98877.65;1677622;83;20306;-84
2022/01/14 13:09:21;;;;;;;;;;;;;;;5.92;100.00;98873.30;1682772;83;24772;-84
2022/01/14 13:11:58;;;;;;;;;;;;;;;5.91;100.00;98873.75;1687532;83;22016;-85
2022/01/14 13:14:26;;;;;;;;;;;;;;;5.87;100.00;98868.31;1678508;83;26156;-84
2022/01/14 13:16:53;;;;;;;;;;;;;;;5.82;100.00;98878.03;1684547;84;24004;-84
2022/01/14 13:19:27;;;;;;;;;;;;;;;5.79;100.00;98884.64;1684588;83;20481;-85